Craig Eric Reinauer — WDD5483 — position and weather

sailwx.info

Track history (hours):
 
Tides and Currents Weather Stations Pressure Air Temp Water Temp Dewpoint Dewpoint Depression Visibility Wind Speed Wind Dir Waves Ship Positions

Craig Eric Reinauer

Owner: REINAUER TRANSPORTATION CO.,LLC., Staten Island, NY. More information available from US FCC via Universal Licensing System and Coast Guard Vessel Documentation Center.

Last reported at 2017-Nov-18 09:03 UTC. Time now 2017-Nov-18 23:21 UTC.
Position N 41°00' W 073°53'.

Length 151 m; draft 6.8 m.

Type: . MMSI: 367159020.

Date/timePositionNaut miles runAvg speedWind from/ knotsBaromVisibWave heightAir tempDewpointWater temp
2017-Nov-18 09:03N 41°00' W 073°53'1 7.1
2017-Nov-18 08:57N 40°60' W 073°53'3 7.0
2017-Nov-18 08:30N 40°56' W 073°54'3 6.9
2017-Nov-18 08:00N 40°53' W 073°56'3 6.4
2017-Nov-18 07:30N 40°50' W 073°57'3 6.2
2017-Nov-18 07:00N 40°47' W 073°59'3 6.3
2017-Nov-18 06:30N 40°45' W 074°01'3 6.9
2017-Nov-18 06:00N 40°41' W 074°02'3 6.0
2017-Nov-18 05:30N 40°39' W 074°05'4 7.5
2017-Nov-18 05:00N 40°39' W 074°10'3 5.1
2017-Nov-18 04:30N 40°37' W 074°12'2 4.0
2017-Nov-18 03:59N 40°35' W 074°12'2 3.4
2017-Nov-18 03:30N 40°33' W 074°13'2 3.5
2017-Nov-18 02:59N 40°33' W 074°15'0 0.0
2017-Nov-18 02:30N 40°33' W 074°15'0 0.0
2017-Nov-18 01:59N 40°33' W 074°15'0 0.0
2017-Nov-18 01:29N 40°33' W 074°15'0 0.0
2017-Nov-18 00:59N 40°33' W 074°15'0 0.0
2017-Nov-18 00:30N 40°33' W 074°15'0 0.0
2017-Nov-17 23:53N 40°33' W 074°15'0 0.2
2017-Nov-17 23:29N 40°33' W 074°15'0 0.0
2017-Nov-17 23:00N 40°33' W 074°15'0 0.0
2017-Nov-17 22:30N 40°33' W 074°15'0 0.9
2017-Nov-17 22:00N 40°33' W 074°15'1 0.8
2017-Nov-17 21:17N 40°33' W 074°14'0 0.0
2017-Nov-17 21:00N 40°33' W 074°14'0 0.0
2017-Nov-17 20:30N 40°33' W 074°14'0 0.0
2017-Nov-17 19:59N 40°33' W 074°14'0 0.0
2017-Nov-17 19:29N 40°33' W 074°14'0 0.0
2017-Nov-17 18:59N 40°33' W 074°14'0 0.0
2017-Nov-17 18:29N 40°33' W 074°14'0 0.0
2017-Nov-17 18:00N 40°33' W 074°14'0 0.1
2017-Nov-17 17:30N 40°33' W 074°14'1 1.6
2017-Nov-17 17:00N 40°33' W 074°15'0 0.7
2017-Nov-17 16:28N 40°33' W 074°15'4 8.8
2017-Nov-17 16:00N 40°37' W 074°12'4 7.2
2017-Nov-17 15:30N 40°39' W 074°08'0 0.8
2017-Nov-17 15:00N 40°38' W 074°08'0 0.0
2017-Nov-17 14:30N 40°38' W 074°08'0 0.0
2017-Nov-17 14:00N 40°38' W 074°08'3 6.7
2017-Nov-17 13:30N 40°38' W 074°12'4 9.0
2017-Nov-17 13:00N 40°33' W 074°13'2 3.1
2017-Nov-17 12:30N 40°33' W 074°15'0 0.0
2017-Nov-17 12:00N 40°33' W 074°15'0 0.0
2017-Nov-17 11:30N 40°33' W 074°15'0 0.0
2017-Nov-17 11:00N 40°33' W 074°15'0 0.0
2017-Nov-17 10:29N 40°33' W 074°15'0 0.0
2017-Nov-17 10:00N 40°33' W 074°15'0 0.0
2017-Nov-17 09:30N 40°33' W 074°15'0 0.0
2017-Nov-17 08:59N 40°33' W 074°15'0 0.0
2017-Nov-17 08:30N 40°33' W 074°15'0 0.0
2017-Nov-17 08:00N 40°33' W 074°15'0 0.0
2017-Nov-17 07:30N 40°33' W 074°15'0 0.0
2017-Nov-17 07:00N 40°33' W 074°15'0 0.0
2017-Nov-17 06:30N 40°33' W 074°15'0 0.2
2017-Nov-17 06:00N 40°33' W 074°15'0 0.0
2017-Nov-17 05:30N 40°33' W 074°15'4 2.1
2017-Nov-17 03:28N 40°30' W 074°10'2 3.6
2017-Nov-17 03:00N 40°30' W 074°08'1 2.3
2017-Nov-17 02:30N 40°29' W 074°07'1 2.7
2017-Nov-17 02:00N 40°29' W 074°05'1 3.0
2017-Nov-17 01:30N 40°29' W 074°03'2 3.9
2017-Nov-17 01:00N 40°31' W 074°03'4 8.9
2017-Nov-17 00:30N 40°35' W 074°02'4 8.9
2017-Nov-17 00:00N 40°39' W 074°03'4 8.9
2017-Nov-16 23:30N 40°44' W 074°01'5 9.1
2017-Nov-16 23:00N 40°48' W 073°59'4 9.0
2017-Nov-16 22:30N 40°52' W 073°57'5 9.9
2017-Nov-16 21:59N 40°57' W 073°54'4 0.1
2017-Nov-15 06:01N 41°01' W 073°53'1 6.5
2017-Nov-15 05:51N 40°60' W 073°54'2 6.3
2017-Nov-15 05:30N 40°57' W 073°54'3 6.4
2017-Nov-15 05:00N 40°54' W 073°55'3 6.2
2017-Nov-15 04:30N 40°51' W 073°57'3 6.2
2017-Nov-15 04:01N 40°49' W 073°58'3 6.3
2017-Nov-15 03:30N 40°46' W 074°00'3 7.0
2017-Nov-15 03:00N 40°42' W 074°02'4 7.1
2017-Nov-15 02:30N 40°39' W 074°03'3 5.4
2017-Nov-15 02:00N 40°39' W 074°07'0 0.0
2017-Nov-15 01:30N 40°39' W 074°07'0 0.0
2017-Nov-15 01:00N 40°39' W 074°07'0 0.0
2017-Nov-15 00:30N 40°39' W 074°07'0 0.0
2017-Nov-15 00:00N 40°39' W 074°07'0 0.0
2017-Nov-14 23:30N 40°39' W 074°07'0 0.0
2017-Nov-14 23:00N 40°39' W 074°07'0 0.0
2017-Nov-14 22:30N 40°39' W 074°07'0 0.0
2017-Nov-14 22:00N 40°39' W 074°07'0 0.0
2017-Nov-14 21:30N 40°39' W 074°07'0 0.0
2017-Nov-14 21:00N 40°39' W 074°07'0 0.0
2017-Nov-14 20:30N 40°39' W 074°07'0 0.0
2017-Nov-14 20:00N 40°39' W 074°07'0 0.0
2017-Nov-14 19:30N 40°39' W 074°07'0 0.0
2017-Nov-14 19:00N 40°39' W 074°07'0 0.0
2017-Nov-14 18:30N 40°39' W 074°07'0 0.0
2017-Nov-14 18:00N 40°39' W 074°07'0 0.0
2017-Nov-14 17:30N 40°39' W 074°07'0 0.0
2017-Nov-14 17:00N 40°39' W 074°07'0 0.0
2017-Nov-14 16:30N 40°39' W 074°07'0 0.0
2017-Nov-14 16:00N 40°39' W 074°07'0 0.0
2017-Nov-14 15:30N 40°39' W 074°07'0 0.0
2017-Nov-14 15:00N 40°39' W 074°07'0 0.0
2017-Nov-14 14:30N 40°39' W 074°07'0 0.0
2017-Nov-14 14:00N 40°39' W 074°07'0 0.0
2017-Nov-14 13:30N 40°39' W 074°07'0 0.0
2017-Nov-14 13:00N 40°39' W 074°07'0 0.0
2017-Nov-14 12:30N 40°39' W 074°07'0 0.0
2017-Nov-14 12:00N 40°39' W 074°07'0 0.0
2017-Nov-14 11:30N 40°39' W 074°07'0 0.0
2017-Nov-14 11:00N 40°39' W 074°07'0 0.0
2017-Nov-14 10:30N 40°39' W 074°07'0 0.0
2017-Nov-14 10:00N 40°39' W 074°07'0 0.0
2017-Nov-14 09:30N 40°39' W 074°07'0 0.0
2017-Nov-14 09:00N 40°39' W 074°07'0 0.0
2017-Nov-14 08:30N 40°39' W 074°07'0 0.0
2017-Nov-14 08:00N 40°39' W 074°07'0 0.0
2017-Nov-14 07:30N 40°39' W 074°07'0 0.0
2017-Nov-14 07:00N 40°39' W 074°07'0 0.0
2017-Nov-14 06:30N 40°39' W 074°07'0 0.0
2017-Nov-14 06:00N 40°39' W 074°07'0 0.0
2017-Nov-14 05:30N 40°39' W 074°07'0 0.0
2017-Nov-14 05:00N 40°39' W 074°07'0 0.0
2017-Nov-14 04:30N 40°39' W 074°07'1 3.0
2017-Nov-14 04:01N 40°39' W 074°05'4 7.0
2017-Nov-14 03:30N 40°36' W 074°02'4 7.3
2017-Nov-14 03:00N 40°32' W 074°02'4 7.3
2017-Nov-14 02:29N 40°29' W 074°04'4 8.2
2017-Nov-14 02:00N 40°30' W 074°09'0 0.1
2017-Nov-14 01:30N 40°30' W 074°09'0 0.1
2017-Nov-14 01:00N 40°30' W 074°09'0 0.1
2017-Nov-14 00:30N 40°30' W 074°09'0 0.0
2017-Nov-14 00:00N 40°30' W 074°09'0 0.0
2017-Nov-13 23:24N 40°30' W 074°10'0 0.0
2017-Nov-13 23:00N 40°30' W 074°10'93 4.4
2017-Nov-13 02:00N 41°11' W 072°20'4 7.9
2017-Nov-13 01:30N 41°12' W 072°15'4 7.8
2017-Nov-13 00:56N 41°13' W 072°09'92 7.8
2017-Nov-12 13:02N 42°08' W 070°30'0 9.9
2017-Nov-12 12:59N 42°09' W 070°30'5 9.6
2017-Nov-12 12:30N 42°14' W 070°31'5 9.6
2017-Nov-12 12:00N 42°18' W 070°31'5 9.7
2017-Nov-12 11:30N 42°23' W 070°31'5 9.5
2017-Nov-12 11:00N 42°28' W 070°32'5 9.6
2017-Nov-12 10:30N 42°33' W 070°32'5 9.6
2017-Nov-12 10:00N 42°38' W 070°32'5 9.7
2017-Nov-12 09:30N 42°42' W 070°32'5 9.8
2017-Nov-12 09:00N 42°47' W 070°35'5 9.6
2017-Nov-12 08:30N 42°51' W 070°37'5 9.6
2017-Nov-12 08:00N 42°56' W 070°39'5 0.3
2017-Nov-11 15:06N 43°01' W 070°41'0 1.1
2017-Nov-11 14:39N 43°00' W 070°41'1 3.9
2017-Nov-11 14:29N 42°59' W 070°40'2 4.3
2017-Nov-11 14:00N 42°57' W 070°40'3 6.1
2017-Nov-11 13:31N 42°55' W 070°39'3 6.0
2017-Nov-11 13:00N 42°52' W 070°38'3 6.1
2017-Nov-11 12:31N 42°49' W 070°37'2 4.6
2017-Nov-11 12:01N 42°47' W 070°36'3 6.4
2017-Nov-11 11:30N 42°43' W 070°35'3 6.1
2017-Nov-11 11:00N 42°41' W 070°32'1 2.0
2017-Nov-11 10:30N 42°40' W 070°32'0 0.0
2017-Nov-11 09:58N 42°40' W 070°32'4 8.2
2017-Nov-11 09:30N 42°36' W 070°31'4 8.5
2017-Nov-11 09:00N 42°32' W 070°31'4 8.5
2017-Nov-11 08:30N 42°28' W 070°30'4 8.5
2017-Nov-11 08:00N 42°24' W 070°30'4 8.2
2017-Nov-11 07:30N 42°19' W 070°30'4 8.1
2017-Nov-11 07:00N 42°16' W 070°31'4 8.1
2017-Nov-11 06:29N 42°11' W 070°31'100 7.0
2017-Nov-10 16:08N 41°11' W 072°19'1 8.4
2017-Nov-10 15:58N 41°11' W 072°21'4 8.7
2017-Nov-10 15:30N 41°10' W 072°26'4 9.0
2017-Nov-10 15:00N 41°09' W 072°31'5 9.1
2017-Nov-10 14:30N 41°08' W 072°37'5 9.4
2017-Nov-10 14:00N 41°07' W 072°44'43 1.2
2017-Nov-09 01:21N 40°55' W 073°38'3 9.7
2017-Nov-09 01:00N 40°54' W 073°42'8 8.7
2017-Nov-09 00:08N 40°48' W 073°48'1 9.3
2017-Nov-09 00:00N 40°48' W 073°50'4 7.4
2017-Nov-08 23:29N 40°47' W 073°55'3 6.2
2017-Nov-08 23:01N 40°45' W 073°58'3 6.4
2017-Nov-08 22:31N 40°42' W 073°59'3 5.1
2017-Nov-08 22:01N 40°40' W 074°01'0 0.5
2017-Nov-08 21:30N 40°40' W 074°01'0 0.0
2017-Nov-08 20:59N 40°40' W 074°01'0 0.0
2017-Nov-08 20:29N 40°40' W 074°01'0 0.0
2017-Nov-08 19:59N 40°40' W 074°01'0 0.0
2017-Nov-08 19:29N 40°40' W 074°01'0 0.0
2017-Nov-08 18:59N 40°40' W 074°01'0 0.0
2017-Nov-08 18:29N 40°40' W 074°01'0 0.0
2017-Nov-08 17:59N 40°40' W 074°01'0 0.0
2017-Nov-08 17:29N 40°40' W 074°01'0 0.0
2017-Nov-08 16:59N 40°40' W 074°01'0 0.0
2017-Nov-08 16:29N 40°40' W 074°01'0 0.0
2017-Nov-08 15:59N 40°40' W 074°01'0 0.0
2017-Nov-08 15:29N 40°40' W 074°01'0 0.0
2017-Nov-08 14:59N 40°40' W 074°01'0 0.0
2017-Nov-08 14:29N 40°40' W 074°01'0 0.0
2017-Nov-08 13:59N 40°40' W 074°01'0 0.0
2017-Nov-08 13:29N 40°40' W 074°01'0 0.0
2017-Nov-08 12:59N 40°40' W 074°01'0 0.0
2017-Nov-08 12:29N 40°40' W 074°01'0 0.0
2017-Nov-08 11:59N 40°40' W 074°01'0 0.0
2017-Nov-08 11:29N 40°40' W 074°01'0 0.0
2017-Nov-08 10:59N 40°40' W 074°01'0 0.0
2017-Nov-08 10:29N 40°40' W 074°01'0 0.0
2017-Nov-08 09:59N 40°40' W 074°01'0 0.0
2017-Nov-08 09:29N 40°40' W 074°01'  
Track history (hours):
 
Tides and Currents Weather Stations Pressure Air Temp Water Temp Dewpoint Dewpoint Depression Visibility Wind Speed Wind Dir Waves Ship Positions

Craig Eric Reinauer

Owner: REINAUER TRANSPORTATION CO.,LLC., Staten Island, NY. More information available from US FCC via Universal Licensing System and Coast Guard Vessel Documentation Center.

Last reported at 2017-Nov-18 09:03 UTC. Time now 2017-Nov-18 23:21 UTC.
Position N 41°00' W 073°53'.

Length 151 m; draft 6.8 m.

Type: . MMSI: 367159020.

Date/timePositionNaut miles runAvg speedWind from/ knotsBaromVisibWave heightAir tempDewpointWater temp
2017-Nov-18 09:03N 41°00' W 073°53'1 7.1
2017-Nov-18 08:57N 40°60' W 073°53'3 7.0
2017-Nov-18 08:30N 40°56' W 073°54'3 6.9
2017-Nov-18 08:00N 40°53' W 073°56'3 6.4
2017-Nov-18 07:30N 40°50' W 073°57'3 6.2
2017-Nov-18 07:00N 40°47' W 073°59'3 6.3
2017-Nov-18 06:30N 40°45' W 074°01'3 6.9
2017-Nov-18 06:00N 40°41' W 074°02'3 6.0
2017-Nov-18 05:30N 40°39' W 074°05'4 7.5
2017-Nov-18 05:00N 40°39' W 074°10'3 5.1
2017-Nov-18 04:30N 40°37' W 074°12'2 4.0
2017-Nov-18 03:59N 40°35' W 074°12'2 3.4
2017-Nov-18 03:30N 40°33' W 074°13'2 3.5
2017-Nov-18 02:59N 40°33' W 074°15'0 0.0
2017-Nov-18 02:30N 40°33' W 074°15'0 0.0
2017-Nov-18 01:59N 40°33' W 074°15'0 0.0
2017-Nov-18 01:29N 40°33' W 074°15'0 0.0
2017-Nov-18 00:59N 40°33' W 074°15'0 0.0
2017-Nov-18 00:30N 40°33' W 074°15'0 0.0
2017-Nov-17 23:53N 40°33' W 074°15'0 0.2
2017-Nov-17 23:29N 40°33' W 074°15'0 0.0
2017-Nov-17 23:00N 40°33' W 074°15'0 0.0
2017-Nov-17 22:30N 40°33' W 074°15'0 0.9
2017-Nov-17 22:00N 40°33' W 074°15'1 0.8
2017-Nov-17 21:17N 40°33' W 074°14'0 0.0
2017-Nov-17 21:00N 40°33' W 074°14'0 0.0
2017-Nov-17 20:30N 40°33' W 074°14'0 0.0
2017-Nov-17 19:59N 40°33' W 074°14'0 0.0
2017-Nov-17 19:29N 40°33' W 074°14'0 0.0
2017-Nov-17 18:59N 40°33' W 074°14'0 0.0
2017-Nov-17 18:29N 40°33' W 074°14'0 0.0
2017-Nov-17 18:00N 40°33' W 074°14'0 0.1
2017-Nov-17 17:30N 40°33' W 074°14'1 1.6
2017-Nov-17 17:00N 40°33' W 074°15'0 0.7
2017-Nov-17 16:28N 40°33' W 074°15'4 8.8
2017-Nov-17 16:00N 40°37' W 074°12'4 7.2
2017-Nov-17 15:30N 40°39' W 074°08'0 0.8
2017-Nov-17 15:00N 40°38' W 074°08'0 0.0
2017-Nov-17 14:30N 40°38' W 074°08'0 0.0
2017-Nov-17 14:00N 40°38' W 074°08'3 6.7
2017-Nov-17 13:30N 40°38' W 074°12'4 9.0
2017-Nov-17 13:00N 40°33' W 074°13'2 3.1
2017-Nov-17 12:30N 40°33' W 074°15'0 0.0
2017-Nov-17 12:00N 40°33' W 074°15'0 0.0
2017-Nov-17 11:30N 40°33' W 074°15'0 0.0
2017-Nov-17 11:00N 40°33' W 074°15'0 0.0
2017-Nov-17 10:29N 40°33' W 074°15'0 0.0
2017-Nov-17 10:00N 40°33' W 074°15'0 0.0
2017-Nov-17 09:30N 40°33' W 074°15'0 0.0
2017-Nov-17 08:59N 40°33' W 074°15'0 0.0
2017-Nov-17 08:30N 40°33' W 074°15'0 0.0
2017-Nov-17 08:00N 40°33' W 074°15'0 0.0
2017-Nov-17 07:30N 40°33' W 074°15'0 0.0
2017-Nov-17 07:00N 40°33' W 074°15'0 0.0
2017-Nov-17 06:30N 40°33' W 074°15'0 0.2
2017-Nov-17 06:00N 40°33' W 074°15'0 0.0
2017-Nov-17 05:30N 40°33' W 074°15'4 2.1
2017-Nov-17 03:28N 40°30' W 074°10'2 3.6
2017-Nov-17 03:00N 40°30' W 074°08'1 2.3
2017-Nov-17 02:30N 40°29' W 074°07'1 2.7
2017-Nov-17 02:00N 40°29' W 074°05'1 3.0
2017-Nov-17 01:30N 40°29' W 074°03'2 3.9
2017-Nov-17 01:00N 40°31' W 074°03'4 8.9
2017-Nov-17 00:30N 40°35' W 074°02'4 8.9
2017-Nov-17 00:00N 40°39' W 074°03'4 8.9
2017-Nov-16 23:30N 40°44' W 074°01'5 9.1
2017-Nov-16 23:00N 40°48' W 073°59'4 9.0
2017-Nov-16 22:30N 40°52' W 073°57'5 9.9
2017-Nov-16 21:59N 40°57' W 073°54'4 0.1
2017-Nov-15 06:01N 41°01' W 073°53'1 6.5
2017-Nov-15 05:51N 40°60' W 073°54'2 6.3
2017-Nov-15 05:30N 40°57' W 073°54'3 6.4
2017-Nov-15 05:00N 40°54' W 073°55'3 6.2
2017-Nov-15 04:30N 40°51' W 073°57'3 6.2
2017-Nov-15 04:01N 40°49' W 073°58'3 6.3
2017-Nov-15 03:30N 40°46' W 074°00'3 7.0
2017-Nov-15 03:00N 40°42' W 074°02'4 7.1
2017-Nov-15 02:30N 40°39' W 074°03'3 5.4
2017-Nov-15 02:00N 40°39' W 074°07'0 0.0
2017-Nov-15 01:30N 40°39' W 074°07'0 0.0
2017-Nov-15 01:00N 40°39' W 074°07'0 0.0
2017-Nov-15 00:30N 40°39' W 074°07'0 0.0
2017-Nov-15 00:00N 40°39' W 074°07'0 0.0
2017-Nov-14 23:30N 40°39' W 074°07'0 0.0
2017-Nov-14 23:00N 40°39' W 074°07'0 0.0
2017-Nov-14 22:30N 40°39' W 074°07'0 0.0
2017-Nov-14 22:00N 40°39' W 074°07'0 0.0
2017-Nov-14 21:30N 40°39' W 074°07'0 0.0
2017-Nov-14 21:00N 40°39' W 074°07'0 0.0
2017-Nov-14 20:30N 40°39' W 074°07'0 0.0
2017-Nov-14 20:00N 40°39' W 074°07'0 0.0
2017-Nov-14 19:30N 40°39' W 074°07'0 0.0
2017-Nov-14 19:00N 40°39' W 074°07'0 0.0
2017-Nov-14 18:30N 40°39' W 074°07'0 0.0
2017-Nov-14 18:00N 40°39' W 074°07'0 0.0
2017-Nov-14 17:30N 40°39' W 074°07'0 0.0
2017-Nov-14 17:00N 40°39' W 074°07'0 0.0
2017-Nov-14 16:30N 40°39' W 074°07'0 0.0
2017-Nov-14 16:00N 40°39' W 074°07'0 0.0
2017-Nov-14 15:30N 40°39' W 074°07'0 0.0
2017-Nov-14 15:00N 40°39' W 074°07'0 0.0
2017-Nov-14 14:30N 40°39' W 074°07'0 0.0
2017-Nov-14 14:00N 40°39' W 074°07'0 0.0
2017-Nov-14 13:30N 40°39' W 074°07'0 0.0
2017-Nov-14 13:00N 40°39' W 074°07'0 0.0
2017-Nov-14 12:30N 40°39' W 074°07'0 0.0
2017-Nov-14 12:00N 40°39' W 074°07'0 0.0
2017-Nov-14 11:30N 40°39' W 074°07'0 0.0
2017-Nov-14 11:00N 40°39' W 074°07'0 0.0
2017-Nov-14 10:30N 40°39' W 074°07'0 0.0
2017-Nov-14 10:00N 40°39' W 074°07'0 0.0
2017-Nov-14 09:30N 40°39' W 074°07'0 0.0
2017-Nov-14 09:00N 40°39' W 074°07'0 0.0
2017-Nov-14 08:30N 40°39' W 074°07'0 0.0
2017-Nov-14 08:00N 40°39' W 074°07'0 0.0
2017-Nov-14 07:30N 40°39' W 074°07'0 0.0
2017-Nov-14 07:00N 40°39' W 074°07'0 0.0
2017-Nov-14 06:30N 40°39' W 074°07'0 0.0
2017-Nov-14 06:00N 40°39' W 074°07'0 0.0
2017-Nov-14 05:30N 40°39' W 074°07'0 0.0
2017-Nov-14 05:00N 40°39' W 074°07'0 0.0
2017-Nov-14 04:30N 40°39' W 074°07'1 3.0
2017-Nov-14 04:01N 40°39' W 074°05'4 7.0
2017-Nov-14 03:30N 40°36' W 074°02'4 7.3
2017-Nov-14 03:00N 40°32' W 074°02'4 7.3
2017-Nov-14 02:29N 40°29' W 074°04'4 8.2
2017-Nov-14 02:00N 40°30' W 074°09'0 0.1
2017-Nov-14 01:30N 40°30' W 074°09'0 0.1
2017-Nov-14 01:00N 40°30' W 074°09'0 0.1
2017-Nov-14 00:30N 40°30' W 074°09'0 0.0
2017-Nov-14 00:00N 40°30' W 074°09'0 0.0
2017-Nov-13 23:24N 40°30' W 074°10'0 0.0
2017-Nov-13 23:00N 40°30' W 074°10'93 4.4
2017-Nov-13 02:00N 41°11' W 072°20'4 7.9
2017-Nov-13 01:30N 41°12' W 072°15'4 7.8
2017-Nov-13 00:56N 41°13' W 072°09'92 7.8
2017-Nov-12 13:02N 42°08' W 070°30'0 9.9
2017-Nov-12 12:59N 42°09' W 070°30'5 9.6
2017-Nov-12 12:30N 42°14' W 070°31'5 9.6
2017-Nov-12 12:00N 42°18' W 070°31'5 9.7
2017-Nov-12 11:30N 42°23' W 070°31'5 9.5
2017-Nov-12 11:00N 42°28' W 070°32'5 9.6
2017-Nov-12 10:30N 42°33' W 070°32'5 9.6
2017-Nov-12 10:00N 42°38' W 070°32'5 9.7
2017-Nov-12 09:30N 42°42' W 070°32'5 9.8
2017-Nov-12 09:00N 42°47' W 070°35'5 9.6
2017-Nov-12 08:30N 42°51' W 070°37'5 9.6
2017-Nov-12 08:00N 42°56' W 070°39'5 0.3
2017-Nov-11 15:06N 43°01' W 070°41'0 1.1
2017-Nov-11 14:39N 43°00' W 070°41'1 3.9
2017-Nov-11 14:29N 42°59' W 070°40'2 4.3
2017-Nov-11 14:00N 42°57' W 070°40'3 6.1
2017-Nov-11 13:31N 42°55' W 070°39'3 6.0
2017-Nov-11 13:00N 42°52' W 070°38'3 6.1
2017-Nov-11 12:31N 42°49' W 070°37'2 4.6
2017-Nov-11 12:01N 42°47' W 070°36'3 6.4
2017-Nov-11 11:30N 42°43' W 070°35'3 6.1
2017-Nov-11 11:00N 42°41' W 070°32'1 2.0
2017-Nov-11 10:30N 42°40' W 070°32'0 0.0
2017-Nov-11 09:58N 42°40' W 070°32'4 8.2
2017-Nov-11 09:30N 42°36' W 070°31'4 8.5
2017-Nov-11 09:00N 42°32' W 070°31'4 8.5
2017-Nov-11 08:30N 42°28' W 070°30'4 8.5
2017-Nov-11 08:00N 42°24' W 070°30'4 8.2
2017-Nov-11 07:30N 42°19' W 070°30'4 8.1
2017-Nov-11 07:00N 42°16' W 070°31'4 8.1
2017-Nov-11 06:29N 42°11' W 070°31'100 7.0
2017-Nov-10 16:08N 41°11' W 072°19'1 8.4
2017-Nov-10 15:58N 41°11' W 072°21'4 8.7
2017-Nov-10 15:30N 41°10' W 072°26'4 9.0
2017-Nov-10 15:00N 41°09' W 072°31'5 9.1
2017-Nov-10 14:30N 41°08' W 072°37'5 9.4
2017-Nov-10 14:00N 41°07' W 072°44'43 1.2
2017-Nov-09 01:21N 40°55' W 073°38'3 9.7
2017-Nov-09 01:00N 40°54' W 073°42'8 8.7
2017-Nov-09 00:08N 40°48' W 073°48'1 9.3
2017-Nov-09 00:00N 40°48' W 073°50'4 7.4
2017-Nov-08 23:29N 40°47' W 073°55'3 6.2
2017-Nov-08 23:01N 40°45' W 073°58'3 6.4
2017-Nov-08 22:31N 40°42' W 073°59'3 5.1
2017-Nov-08 22:01N 40°40' W 074°01'0 0.5
2017-Nov-08 21:30N 40°40' W 074°01'0 0.0
2017-Nov-08 20:59N 40°40' W 074°01'0 0.0
2017-Nov-08 20:29N 40°40' W 074°01'0 0.0
2017-Nov-08 19:59N 40°40' W 074°01'0 0.0
2017-Nov-08 19:29N 40°40' W 074°01'0 0.0
2017-Nov-08 18:59N 40°40' W 074°01'0 0.0
2017-Nov-08 18:29N 40°40' W 074°01'0 0.0
2017-Nov-08 17:59N 40°40' W 074°01'0 0.0
2017-Nov-08 17:29N 40°40' W 074°01'0 0.0
2017-Nov-08 16:59N 40°40' W 074°01'0 0.0
2017-Nov-08 16:29N 40°40' W 074°01'0 0.0
2017-Nov-08 15:59N 40°40' W 074°01'0 0.0
2017-Nov-08 15:29N 40°40' W 074°01'0 0.0
2017-Nov-08 14:59N 40°40' W 074°01'0 0.0
2017-Nov-08 14:29N 40°40' W 074°01'0 0.0
2017-Nov-08 13:59N 40°40' W 074°01'0 0.0
2017-Nov-08 13:29N 40°40' W 074°01'0 0.0
2017-Nov-08 12:59N 40°40' W 074°01'0 0.0
2017-Nov-08 12:29N 40°40' W 074°01'0 0.0
2017-Nov-08 11:59N 40°40' W 074°01'0 0.0
2017-Nov-08 11:29N 40°40' W 074°01'0 0.0
2017-Nov-08 10:59N 40°40' W 074°01'0 0.0
2017-Nov-08 10:29N 40°40' W 074°01'0 0.0
2017-Nov-08 09:59N 40°40' W 074°01'0 0.0
2017-Nov-08 09:29N 40°40' W 074°01'  

Dump ship's entire track history